Time;durP1;ratioP1;P1;durP2;ratioP2;P2;SDS_P1;SDS_P2;PMS_P1;PMS_P2;Temp;Humidity;BMP_temperature;BMP_pressure;BME280_temperature;BME280_humidity;BME280_pressure;Samples;Min_cycle;Max_cycle;Signal;HPM_P1;HPM_P2
2023/04/12 00:01:39;;;;;;;3.88;1.48;;;10.10;70.50;;;;;;4956825;28;20043;-63
2023/04/12 00:04:04;;;;;;;2.75;1.60;;;10.10;70.70;;;;;;4956349;28;20050;-63
2023/04/12 00:06:33;;;;;;;3.33;1.35;;;10.10;70.90;;;;;;4954322;28;20031;-62
2023/04/12 00:09:00;;;;;;;4.47;1.60;;;10.10;70.90;;;;;;4957437;28;20410;-60
2023/04/12 00:11:27;;;;;;;4.55;1.85;;;10.10;71.20;;;;;;4960149;28;20118;-63
2023/04/12 00:13:53;;;;;;;3.60;1.50;;;10.00;71.40;;;;;;4959426;28;20039;-62
2023/04/12 00:16:19;;;;;;;3.90;1.50;;;10.00;71.80;;;;;;4959914;28;20469;-61
2023/04/12 00:18:44;;;;;;;4.45;1.58;;;10.00;71.60;;;;;;4958358;28;20123;-62
2023/04/12 00:21:11;;;;;;;3.85;1.73;;;9.90;71.90;;;;;;4955435;28;20094;-62
2023/04/12 00:23:39;;;;;;;3.08;1.90;;;9.90;72.20;;;;;;4955401;28;20398;-62
2023/04/12 00:26:05;;;;;;;5.03;2.00;;;9.90;72.50;;;;;;4954806;28;20042;-62
2023/04/12 00:28:31;;;;;;;5.03;2.00;;;9.90;72.70;;;;;;4958960;28;20038;-63
2023/04/12 00:30:56;;;;;;;3.92;1.90;;;9.80;72.90;;;;;;4954380;28;20121;-63
2023/04/12 00:33:22;;;;;;;3.38;1.83;;;9.80;73.00;;;;;;4958676;28;20101;-62
2023/04/12 00:35:48;;;;;;;3.00;1.65;;;9.80;73.20;;;;;;4959598;28;20097;-62
2023/04/12 00:38:15;;;;;;;2.78;1.80;;;9.80;73.20;;;;;;4954538;28;20595;-60
2023/04/12 00:40:41;;;;;;;4.47;1.85;;;9.80;73.70;;;;;;4957082;28;20502;-62
2023/04/12 00:43:07;;;;;;;3.67;2.00;;;9.70;73.70;;;;;;4955030;28;20050;-61
2023/04/12 00:45:34;;;;;;;2.35;1.70;;;9.70;73.90;;;;;;4958769;28;20431;-62
2023/04/12 00:48:00;;;;;;;2.95;1.92;;;9.70;74.40;;;;;;4959846;28;20039;-61
2023/04/12 00:50:26;;;;;;;4.10;2.05;;;9.70;74.70;;;;;;4955185;28;20038;-63
2023/04/12 00:52:52;;;;;;;3.25;1.70;;;9.70;74.70;;;;;;4954708;28;20039;-63
2023/04/12 00:55:18;;;;;;;3.13;1.83;;;9.70;74.90;;;;;;4952614;28;20043;-62
2023/04/12 00:57:44;;;;;;;4.15;2.00;;;9.70;75.20;;;;;;4954817;28;20034;-62
2023/04/12 01:00:11;;;;;;;4.32;2.10;;;9.70;75.40;;;;;;4958124;28;20043;-61
2023/04/12 01:02:38;;;;;;;3.80;2.00;;;9.70;75.60;;;;;;4961729;28;20032;-62
2023/04/12 01:05:06;;;;;;;3.50;2.10;;;9.60;75.60;;;;;;4955165;28;20044;-61
2023/04/12 01:07:54;;;;;;;2.55;1.90;;;9.60;75.70;;;;;;4954281;28;20556;-63
2023/04/12 01:10:22;;;;;;;3.45;2.13;;;9.60;77.40;;;;;;4954990;28;20110;-61
2023/04/12 01:13:10;;;;;;;3.55;2.13;;;9.60;75.40;;;;;;4959389;28;20513;-62
2023/04/12 01:15:43;;;;;;;4.18;2.10;;;9.60;77.30;;;;;;4957680;28;20043;-62
2023/04/12 01:18:18;;;;;;;3.65;1.92;;;9.60;76.50;;;;;;4959281;28;20058;-62
2023/04/12 01:20:53;;;;;;;2.10;1.80;;;9.60;77.80;;;;;;4954056;28;20041;-61
2023/04/12 01:23:43;;;;;;;2.05;1.88;;;9.60;77.20;;;;;;4953543;28;20041;-62
2023/04/12 01:26:31;;;;;;;4.35;2.28;;;9.50;77.50;;;;;;4954985;28;20066;-61
2023/04/12 01:28:59;;;;;;;2.95;1.90;;;9.50;76.80;;;;;;4955333;28;20066;-62
2023/04/12 01:31:27;;;;;;;3.25;1.98;;;9.50;77.00;;;;;;4952329;28;21663;-63
2023/04/12 01:33:53;;;;;;;3.17;1.90;;;9.50;76.90;;;;;;4953389;28;20047;-63
2023/04/12 01:36:21;;;;;;;4.13;1.90;;;9.50;77.00;;;;;;4954834;28;20073;-63
2023/04/12 01:38:48;;;;;;;3.25;2.00;;;9.50;77.20;;;;;;4953452;28;20035;-62
2023/04/12 01:41:14;;;;;;;2.10;1.88;;;9.50;77.30;;;;;;4952338;28;20046;-62
2023/04/12 01:43:44;;;;;;;2.58;1.60;;;9.50;77.60;;;;;;4952616;28;20031;-62
2023/04/12 01:46:21;;;;;;;3.17;1.48;;;9.50;77.70;;;;;;4952829;28;20116;-62
2023/04/12 01:48:51;;;;;;;2.50;1.60;;;9.50;77.60;;;;;;4953385;28;20511;-62
2023/04/12 01:51:45;;;;;;;1.50;1.40;;;9.50;78.10;;;;;;4955532;28;20068;-62
2023/04/12 01:54:16;;;;;;;1.58;1.48;;;9.50;78.80;;;;;;4953752;28;20070;-63
2023/04/12 01:56:45;;;;;;;1.40;1.30;;;9.50;77.90;;;;;;4953906;28;20534;-61
2023/04/12 01:59:14;;;;;;;2.03;1.55;;;9.50;77.90;;;;;;4954729;28;20050;-61
2023/04/12 02:01:40;;;;;;;1.58;1.23;;;9.50;77.70;;;;;;4952639;28;20098;-60
2023/04/12 02:04:08;;;;;;;1.40;1.27;;;9.40;78.00;;;;;;4954475;28;20039;-63
2023/04/12 02:06:34;;;;;;;1.67;1.30;;;9.40;78.20;;;;;;4952945;28;20465;-63
2023/04/12 02:09:01;;;;;;;1.92;1.40;;;9.40;78.00;;;;;;4955837;28;20039;-63
2023/04/12 02:11:28;;;;;;;1.50;1.20;;;9.40;78.40;;;;;;4955413;28;20027;-62
2023/04/12 02:13:53;;;;;;;2.13;1.30;;;9.40;78.30;;;;;;4955837;28;20105;-63
2023/04/12 02:16:19;;;;;;;1.73;1.30;;;9.40;78.30;;;;;;4957687;28;20069;-60
2023/04/12 02:18:46;;;;;;;3.05;1.50;;;9.40;78.20;;;;;;4955446;28;20035;-62
2023/04/12 02:21:12;;;;;;;1.70;1.02;;;9.40;78.70;;;;;;4955144;28;20055;-61
2023/04/12 02:23:37;;;;;;;1.65;1.40;;;9.40;78.60;;;;;;4955682;28;20451;-62
2023/04/12 02:26:03;;;;;;;1.30;1.20;;;9.40;78.60;;;;;;4953324;28;20031;-62
2023/04/12 02:28:29;;;;;;;1.60;1.20;;;9.40;78.70;;;;;;4930487;28;20082;-63
2023/04/12 02:30:54;;;;;;;1.75;1.15;;;9.40;78.70;;;;;;4951365;28;20097;-62
2023/04/12 02:33:27;;;;;;;1.58;1.00;;;9.40;78.80;;;;;;4954278;28;20039;-63
2023/04/12 02:35:53;;;;;;;1.52;1.10;;;9.40;78.90;;;;;;4956268;28;20047;-63
2023/04/12 02:38:18;;;;;;;1.63;1.10;;;9.40;78.80;;;;;;4954775;28;20045;-62
2023/04/12 02:40:44;;;;;;;1.30;0.90;;;9.40;79.00;;;;;;4955590;28;20038;-63
2023/04/12 02:43:09;;;;;;;1.15;1.05;;;9.40;79.10;;;;;;4952148;28;20479;-63
2023/04/12 02:45:35;;;;;;;1.52;1.10;;;9.40;79.10;;;;;;4951406;28;20042;-63
2023/04/12 02:48:01;;;;;;;2.05;1.15;;;9.50;79.30;;;;;;4952826;28;20046;-63
2023/04/12 02:50:28;;;;;;;1.55;1.20;;;9.40;79.10;;;;;;4952486;28;20115;-63
2023/04/12 02:52:53;;;;;;;3.03;1.35;;;9.40;79.10;;;;;;4956354;28;20043;-63
2023/04/12 02:55:19;;;;;;;1.80;1.05;;;9.40;79.30;;;;;;4951858;28;20265;-63
2023/04/12 02:57:44;;;;;;;1.92;1.20;;;9.40;79.30;;;;;;4953426;28;20043;-63
2023/04/12 03:00:11;;;;;;;3.33;1.13;;;9.40;79.50;;;;;;4952248;28;20039;-63
2023/04/12 03:02:37;;;;;;;1.45;1.00;;;9.40;79.50;;;;;;4952977;28;20066;-63
2023/04/12 03:05:03;;;;;;;1.13;1.02;;;9.40;79.50;;;;;;4956656;28;20039;-63
2023/04/12 03:07:29;;;;;;;1.17;1.08;;;9.40;79.50;;;;;;4957219;28;20522;-63
2023/04/12 03:09:55;;;;;;;1.33;1.05;;;9.40;79.60;;;;;;4951810;28;20051;-63
2023/04/12 03:12:21;;;;;;;1.85;1.10;;;9.40;79.60;;;;;;4954825;28;20028;-63
2023/04/12 03:14:46;;;;;;;1.13;1.10;;;9.40;79.70;;;;;;4952982;28;20188;-63
2023/04/12 03:17:12;;;;;;;1.35;1.15;;;9.40;79.60;;;;;;4950368;28;20154;-62
2023/04/12 03:19:38;;;;;;;1.50;1.00;;;9.40;79.80;;;;;;4953240;28;20035;-63
2023/04/12 03:22:04;;;;;;;1.58;1.05;;;9.40;80.00;;;;;;4950637;28;20051;-63
2023/04/12 03:24:33;;;;;;;2.13;1.20;;;9.30;80.00;;;;;;4954600;28;20044;-63
2023/04/12 03:27:01;;;;;;;2.20;1.27;;;9.30;80.10;;;;;;4951504;28;20045;-63
2023/04/12 03:29:27;;;;;;;2.72;1.25;;;9.30;80.30;;;;;;4952381;28;20047;-63
2023/04/12 03:31:52;;;;;;;1.10;0.98;;;9.30;80.30;;;;;;4956586;28;20105;-63
2023/04/12 03:34:18;;;;;;;0.93;0.93;;;9.30;80.30;;;;;;4957061;28;20046;-63
2023/04/12 03:36:43;;;;;;;2.78;0.93;;;9.30;80.40;;;;;;4955682;28;20027;-63
2023/04/12 03:39:09;;;;;;;1.05;0.98;;;9.30;80.50;;;;;;4956369;28;20121;-62
2023/04/12 03:41:35;;;;;;;1.27;1.00;;;9.30;80.50;;;;;;4959575;28;20031;-62
2023/04/12 03:44:00;;;;;;;2.28;0.90;;;9.30;80.60;;;;;;4953431;28;20093;-63
2023/04/12 03:46:26;;;;;;;1.27;1.00;;;9.30;80.80;;;;;;4951879;28;20498;-60
2023/04/12 03:48:51;;;;;;;0.95;0.85;;;9.30;80.70;;;;;;4957744;28;20924;-63
2023/04/12 03:51:20;;;;;;;1.02;0.90;;;9.20;80.80;;;;;;4955944;28;20124;-63
2023/04/12 03:53:46;;;;;;;1.58;1.05;;;9.20;80.90;;;;;;4957224;28;20034;-63
2023/04/12 03:56:12;;;;;;;1.35;0.68;;;9.20;81.00;;;;;;4955255;28;20520;-64
2023/04/12 03:58:38;;;;;;;1.90;0.88;;;9.30;81.20;;;;;;4954163;28;20039;-63
2023/04/12 04:01:08;;;;;;;1.40;0.93;;;9.30;81.10;;;;;;4956166;28;20032;-63
2023/04/12 04:03:34;;;;;;;1.40;1.08;;;9.30;81.00;;;;;;4955964;28;20375;-63
2023/04/12 04:06:02;;;;;;;2.53;0.80;;;9.30;80.80;;;;;;4954727;28;20526;-63
2023/04/12 04:08:31;;;;;;;2.83;0.80;;;9.30;81.00;;;;;;4955335;28;20081;-63
2023/04/12 04:10:57;;;;;;;1.60;1.00;;;9.30;80.60;;;;;;4956969;28;20031;-63
2023/04/12 04:13:23;;;;;;;1.10;0.80;;;9.40;80.80;;;;;;4960949;28;20035;-61
2023/04/12 04:15:51;;;;;;;0.88;0.80;;;9.30;80.80;;;;;;4961226;28;20031;-62
2023/04/12 04:18:16;;;;;;;0.90;0.73;;;9.30;81.00;;;;;;4955987;28;20047;-62
2023/04/12 04:20:42;;;;;;;1.70;1.17;;;9.30;80.80;;;;;;4954389;28;20031;-63
2023/04/12 04:23:10;;;;;;;1.17;1.08;;;9.30;80.80;;;;;;4955290;28;20046;-62
2023/04/12 04:25:38;;;;;;;0.75;0.75;;;9.30;80.80;;;;;;4957849;28;20473;-63
2023/04/12 04:28:06;;;;;;;2.35;1.00;;;9.30;80.80;;;;;;4958340;28;20052;-62
2023/04/12 04:30:37;;;;;;;1.30;1.00;;;9.30;81.70;;;;;;4959396;28;20039;-63
2023/04/12 04:33:04;;;;;;;1.13;0.88;;;9.30;81.00;;;;;;4960637;28;20041;-62
2023/04/12 04:35:30;;;;;;;0.80;0.80;;;9.20;81.00;;;;;;4958000;28;20101;-63
2023/04/12 04:37:56;;;;;;;1.13;1.00;;;9.20;81.10;;;;;;4959410;28;20546;-63
2023/04/12 04:40:23;;;;;;;1.10;1.00;;;9.20;81.10;;;;;;4959296;28;20058;-63
2023/04/12 04:42:56;;;;;;;1.00;0.80;;;9.20;81.30;;;;;;4958897;28;20038;-63
2023/04/12 04:45:25;;;;;;;2.42;1.10;;;9.20;81.40;;;;;;4959435;28;20042;-63
2023/04/12 04:47:54;;;;;;;1.77;1.10;;;9.20;81.50;;;;;;4958834;28;20062;-63
2023/04/12 04:50:21;;;;;;;0.95;0.82;;;9.20;81.80;;;;;;4958672;28;20070;-62
2023/04/12 04:52:50;;;;;;;1.13;1.02;;;9.20;81.50;;;;;;4957295;28;20520;-63
2023/04/12 04:55:16;;;;;;;1.20;0.80;;;9.10;81.70;;;;;;4959881;28;20059;-63
2023/04/12 04:57:43;;;;;;;1.95;1.00;;;9.10;81.90;;;;;;4959148;28;20109;-63
2023/04/12 05:00:10;;;;;;;1.10;0.88;;;9.10;81.90;;;;;;4959118;28;20058;-63
2023/04/12 05:02:41;;;;;;;1.10;1.00;;;9.10;81.90;;;;;;4958550;28;20039;-63
2023/04/12 05:05:14;;;;;;;1.77;1.30;;;9.10;82.00;;;;;;4958168;28;20053;-63
2023/04/12 05:07:42;;;;;;;2.10;1.40;;;9.10;82.00;;;;;;4958387;28;20055;-62
2023/04/12 05:10:08;;;;;;;2.13;1.35;;;9.10;81.90;;;;;;4958261;28;20058;-63
2023/04/12 05:12:35;;;;;;;2.20;1.33;;;9.10;82.20;;;;;;4957718;28;20062;-63
2023/04/12 05:15:01;;;;;;;2.85;1.55;;;9.10;82.40;;;;;;4959446;28;20419;-64
2023/04/12 05:17:26;;;;;;;1.88;1.42;;;9.10;82.60;;;;;;4958868;28;20039;-63
2023/04/12 05:19:52;;;;;;;3.60;1.40;;;9.10;82.70;;;;;;4957975;28;20537;-62
2023/04/12 05:22:21;;;;;;;2.55;1.48;;;9.10;82.60;;;;;;4958904;28;20088;-62
2023/04/12 05:24:47;;;;;;;3.20;1.42;;;9.10;82.70;;;;;;4957861;28;20507;-62
2023/04/12 05:27:15;;;;;;;3.00;1.63;;;9.10;82.60;;;;;;4958234;28;20600;-63
2023/04/12 05:29:41;;;;;;;2.97;1.70;;;9.10;82.60;;;;;;4958834;28;20031;-62
2023/04/12 05:32:07;;;;;;;1.40;1.25;;;9.10;82.60;;;;;;4958303;28;20046;-62
2023/04/12 05:34:32;;;;;;;2.15;1.45;;;9.10;82.60;;;;;;4956952;28;20035;-62
2023/04/12 05:36:58;;;;;;;2.28;1.50;;;9.20;82.80;;;;;;4958106;28;20090;-63
2023/04/12 05:39:26;;;;;;;5.47;1.70;;;9.10;82.90;;;;;;4958079;28;20042;-63
2023/04/12 05:41:52;;;;;;;1.85;1.60;;;9.20;83.00;;;;;;4958622;28;20483;-63
2023/04/12 05:44:17;;;;;;;2.25;1.80;;;9.20;83.10;;;;;;4958257;28;20062;-63
2023/04/12 05:46:43;;;;;;;3.53;1.70;;;9.20;83.10;;;;;;4956622;28;20532;-63
2023/04/12 05:49:09;;;;;;;1.48;1.38;;;9.20;83.10;;;;;;4958120;28;20498;-63
2023/04/12 05:51:34;;;;;;;2.17;1.38;;;9.20;83.10;;;;;;4958806;28;20495;-63
2023/04/12 05:54:00;;;;;;;2.40;1.50;;;9.30;83.30;;;;;;4957195;28;20152;-63
2023/04/12 05:56:26;;;;;;;2.38;1.60;;;9.20;83.10;;;;;;4957841;28;20038;-63
2023/04/12 05:58:51;;;;;;;1.92;1.38;;;9.20;83.20;;;;;;4957481;28;20042;-63
2023/04/12 06:01:18;;;;;;;1.35;1.23;;;9.30;83.20;;;;;;4958262;28;20047;-63
2023/04/12 06:03:45;;;;;;;2.50;1.50;;;9.30;83.40;;;;;;4956408;28;20030;-63
2023/04/12 06:06:11;;;;;;;4.13;1.48;;;9.30;83.60;;;;;;4957865;28;20625;-63
2023/04/12 06:08:37;;;;;;;2.08;1.70;;;9.30;83.50;;;;;;4956380;28;20039;-64
2023/04/12 06:11:04;;;;;;;1.58;1.42;;;9.30;83.50;;;;;;4957968;28;20039;-63
2023/04/12 06:13:29;;;;;;;2.53;1.35;;;9.30;83.70;;;;;;4959910;28;20042;-62
2023/04/12 06:15:55;;;;;;;4.18;2.10;;;9.30;83.60;;;;;;4958231;28;20043;-63
2023/04/12 06:18:20;;;;;;;2.60;1.40;;;9.30;83.70;;;;;;4958275;28;20031;-63
2023/04/12 06:20:46;;;;;;;2.08;1.50;;;9.40;83.80;;;;;;4957511;28;20032;-63
2023/04/12 06:23:12;;;;;;;3.63;2.00;;;9.40;84.00;;;;;;4956551;28;20096;-63
2023/04/12 06:25:37;;;;;;;2.42;1.80;;;9.40;84.00;;;;;;4957672;28;20046;-62
2023/04/12 06:28:03;;;;;;;2.75;1.90;;;9.40;84.20;;;;;;4957572;28;20038;-62
2023/04/12 06:30:29;;;;;;;2.45;1.80;;;9.40;84.50;;;;;;4955326;28;20119;-62
2023/04/12 06:32:55;;;;;;;2.40;1.80;;;9.40;84.40;;;;;;4956283;28;20065;-63
2023/04/12 06:35:21;;;;;;;5.15;4.07;;;9.50;85.40;;;;;;4956415;28;20059;-63
2023/04/12 06:37:47;;;;;;;3.30;2.45;;;9.50;84.60;;;;;;4957480;28;20069;-63
2023/04/12 06:40:12;;;;;;;2.97;1.75;;;9.50;84.60;;;;;;4957337;28;20146;-63
2023/04/12 06:42:38;;;;;;;2.28;1.58;;;9.60;84.70;;;;;;4957393;28;20529;-62
2023/04/12 06:45:04;;;;;;;2.67;1.45;;;9.60;84.70;;;;;;4958191;28;20472;-63
2023/04/12 06:47:31;;;;;;;1.70;1.17;;;9.60;84.70;;;;;;4955375;28;20467;-63
2023/04/12 06:49:57;;;;;;;1.33;1.13;;;9.60;84.60;;;;;;4958556;28;20098;-63
2023/04/12 06:52:25;;;;;;;1.52;1.05;;;9.70;84.30;;;;;;4955871;28;20039;-63
2023/04/12 06:54:52;;;;;;;1.30;1.20;;;9.70;84.70;;;;;;4954123;28;20039;-64
2023/04/12 06:57:17;;;;;;;1.42;1.02;;;9.70;84.60;;;;;;4955969;28;20039;-63
2023/04/12 06:59:43;;;;;;;1.45;1.20;;;9.70;84.50;;;;;;4957059;28;20031;-64
2023/04/12 07:02:09;;;;;;;1.75;1.30;;;9.80;84.60;;;;;;4956556;28;20498;-63
2023/04/12 07:04:34;;;;;;;1.65;1.02;;;9.80;84.50;;;;;;4955462;28;20037;-64
2023/04/12 07:07:00;;;;;;;1.95;1.40;;;9.80;84.60;;;;;;4956340;28;20043;-63
2023/04/12 07:09:26;;;;;;;1.77;1.20;;;9.80;84.60;;;;;;4957346;28;20062;-63
2023/04/12 07:11:52;;;;;;;2.33;1.60;;;9.80;84.60;;;;;;4956352;28;20042;-63
2023/04/12 07:14:17;;;;;;;2.40;1.45;;;9.90;84.60;;;;;;4955768;28;20422;-63
2023/04/12 07:16:43;;;;;;;1.45;1.33;;;9.90;84.60;;;;;;4956219;28;20046;-63
2023/04/12 07:19:09;;;;;;;1.77;1.30;;;10.00;84.50;;;;;;4957604;28;20035;-61
2023/04/12 07:21:35;;;;;;;1.77;1.30;;;10.00;84.50;;;;;;4957054;28;20523;-63
2023/04/12 07:24:00;;;;;;;1.45;1.35;;;10.00;84.50;;;;;;4956863;28;20467;-63
2023/04/12 07:26:26;;;;;;;1.95;1.30;;;10.00;84.50;;;;;;4956763;28;20072;-63
2023/04/12 07:28:52;;;;;;;1.52;1.42;;;10.00;84.70;;;;;;4958257;28;20043;-63
2023/04/12 07:31:17;;;;;;;1.67;1.10;;;10.00;84.40;;;;;;4956965;28;20431;-63
2023/04/12 07:33:43;;;;;;;1.67;1.45;;;10.00;84.40;;;;;;4956987;28;20515;-62
2023/04/12 07:36:09;;;;;;;1.90;1.50;;;10.00;84.50;;;;;;4954808;28;20041;-62
2023/04/12 07:38:35;;;;;;;2.13;1.33;;;10.10;84.50;;;;;;4957169;28;20580;-62
2023/04/12 07:41:01;;;;;;;1.88;1.40;;;10.00;84.40;;;;;;4958360;28;20043;-63
2023/04/12 07:43:26;;;;;;;4.25;1.60;;;10.10;84.60;;;;;;4957244;28;20043;-63
2023/04/12 07:45:54;;;;;;;1.65;1.55;;;10.10;84.70;;;;;;4956157;28;20316;-63
2023/04/12 07:48:20;;;;;;;10.60;5.75;;;10.10;84.80;;;;;;4956165;28;20130;-63
2023/04/12 07:50:46;;;;;;;7.63;5.25;;;10.10;84.80;;;;;;4956697;28;20141;-63
2023/04/12 07:53:23;;;;;;;3.50;2.70;;;10.10;85.20;;;;;;4956562;28;20043;-63
2023/04/12 07:55:49;;;;;;;3.83;1.85;;;10.20;86.40;;;;;;4955867;28;20039;-63
2023/04/12 07:58:15;;;;;;;1.77;1.42;;;10.20;85.50;;;;;;4956082;28;20528;-63
2023/04/12 08:00:41;;;;;;;1.67;1.10;;;10.30;85.60;;;;;;4956236;28;20035;-63
2023/04/12 08:03:07;;;;;;;1.20;1.08;;;10.30;85.50;;;;;;4953011;28;20046;-63
2023/04/12 08:05:33;;;;;;;3.63;1.52;;;10.40;85.50;;;;;;4956755;28;20449;-63
2023/04/12 08:07:59;;;;;;;2.05;1.58;;;10.40;85.50;;;;;;4959063;28;20126;-62
2023/04/12 08:10:24;;;;;;;5.88;1.88;;;10.50;85.50;;;;;;4958709;28;20047;-62
2023/04/12 08:12:50;;;;;;;3.08;1.55;;;10.50;85.60;;;;;;4959409;28;20034;-63
2023/04/12 08:15:15;;;;;;;1.83;1.40;;;10.60;85.40;;;;;;4958898;28;20047;-63
2023/04/12 08:17:42;;;;;;;1.55;1.25;;;10.70;85.40;;;;;;4960464;28;20041;-63
2023/04/12 08:20:08;;;;;;;4.85;1.40;;;10.70;85.20;;;;;;4959915;28;20097;-63
2023/04/12 08:22:34;;;;;;;1.77;1.42;;;10.80;85.10;;;;;;4961895;28;20531;-63
2023/04/12 08:25:00;;;;;;;1.45;1.10;;;10.90;85.20;;;;;;4961983;28;20078;-62
2023/04/12 08:27:28;;;;;;;1.85;1.40;;;10.90;85.20;;;;;;4960594;28;20049;-62
2023/04/12 08:29:54;;;;;;;2.25;1.33;;;11.00;85.30;;;;;;4961281;28;20031;-63
2023/04/12 08:32:20;;;;;;;3.42;1.10;;;11.10;85.50;;;;;;4961687;28;20101;-62
2023/04/12 08:34:46;;;;;;;1.67;1.10;;;11.10;85.30;;;;;;4961767;28;20042;-62
2023/04/12 08:37:11;;;;;;;2.13;1.20;;;11.20;85.20;;;;;;4960943;28;20030;-63
2023/04/12 08:39:37;;;;;;;1.20;1.10;;;11.30;85.30;;;;;;4958925;28;20070;-62
2023/04/12 08:42:03;;;;;;;1.98;1.30;;;11.40;85.30;;;;;;4962732;28;20041;-61
2023/04/12 08:44:37;;;;;;;1.52;1.20;;;11.50;85.40;;;;;;4959431;28;20128;-62
2023/04/12 08:47:04;;;;;;;2.58;1.00;;;11.60;85.30;;;;;;4959054;28;20039;-61
2023/04/12 08:49:31;;;;;;;1.63;1.10;;;11.70;84.70;;;;;;4959599;28;21378;-62
2023/04/12 08:52:06;;;;;;;1.20;1.10;;;11.80;84.60;;;;;;4959080;28;20043;-62
2023/04/12 08:54:33;;;;;;;2.08;0.80;;;11.90;84.70;;;;;;4960794;28;20042;-62
2023/04/12 08:57:01;;;;;;;1.38;1.02;;;12.00;84.20;;;;;;4958492;28;20129;-62
2023/04/12 08:59:28;;;;;;;3.72;1.08;;;12.10;84.00;;;;;;4959604;28;20396;-62
2023/04/12 09:01:55;;;;;;;2.70;1.17;;;12.10;83.60;;;;;;4958914;28;20086;-63
2023/04/12 09:04:21;;;;;;;1.52;1.10;;;12.20;83.50;;;;;;4959613;28;20217;-62
2023/04/12 09:06:46;;;;;;;1.33;1.20;;;12.30;83.30;;;;;;4959695;28;21196;-63
2023/04/12 09:09:12;;;;;;;2.00;1.20;;;12.40;83.30;;;;;;4960923;28;20063;-62
2023/04/12 09:11:37;;;;;;;2.55;1.23;;;12.40;83.40;;;;;;4962245;28;20410;-62
2023/04/12 09:14:03;;;;;;;1.75;1.33;;;12.50;83.50;;;;;;4960227;28;20086;-62
2023/04/12 09:16:40;;;;;;;1.20;1.10;;;12.60;83.30;;;;;;4959316;28;20042;-62
2023/04/12 09:19:06;;;;;;;1.35;1.25;;;12.70;83.20;;;;;;4959896;28;20126;-62
2023/04/12 09:21:35;;;;;;;1.13;1.02;;;12.70;82.60;;;;;;4960082;28;20655;-62
2023/04/12 09:24:09;;;;;;;1.52;1.20;;;12.80;82.10;;;;;;4959000;28;20530;-62
2023/04/12 09:26:35;;;;;;;1.10;1.00;;;12.90;82.20;;;;;;4959704;28;20039;-62
2023/04/12 09:29:02;;;;;;;1.10;1.00;;;12.90;82.10;;;;;;4961345;28;20066;-60
2023/04/12 09:31:28;;;;;;;1.63;1.00;;;13.00;82.20;;;;;;4960469;28;20035;-62
2023/04/12 09:34:07;;;;;;;1.67;0.90;;;13.00;82.00;;;;;;4960418;28;20037;-62
2023/04/12 09:36:40;;;;;;;0.93;0.90;;;13.10;81.80;;;;;;4960756;28;20035;-61
2023/04/12 09:39:06;;;;;;;1.20;1.10;;;13.20;81.90;;;;;;4960852;28;20537;-62
2023/04/12 09:41:32;;;;;;;1.10;1.00;;;13.20;81.50;;;;;;4960393;28;20042;-63
2023/04/12 09:43:59;;;;;;;0.98;0.98;;;13.30;81.00;;;;;;4960515;28;20035;-62
2023/04/12 09:46:24;;;;;;;1.20;1.10;;;13.40;80.30;;;;;;4957387;28;20050;-62
2023/04/12 09:48:52;;;;;;;1.60;0.98;;;13.40;79.90;;;;;;4959221;28;20039;-62
2023/04/12 09:51:32;;;;;;;1.80;1.20;;;13.50;79.40;;;;;;4957880;28;20129;-62
2023/04/12 09:54:02;;;;;;;1.30;1.00;;;13.60;79.40;;;;;;4959717;28;20047;-62
2023/04/12 09:56:32;;;;;;;1.95;1.15;;;13.60;78.80;;;;;;4959253;28;20614;-62
2023/04/12 09:59:03;;;;;;;3.47;0.88;;;13.70;78.50;;;;;;4942688;28;20566;-62
2023/04/12 10:01:37;;;;;;;4.65;1.50;;;13.70;78.40;;;;;;4960831;28;21862;-61
2023/04/12 10:04:07;;;;;;;2.65;1.95;;;13.70;78.00;;;;;;4959799;28;20050;-60
2023/04/12 10:06:33;;;;;;;1.90;1.30;;;13.80;78.10;;;;;;4958848;28;20039;-62
2023/04/12 10:09:03;;;;;;;1.23;1.10;;;13.80;77.60;;;;;;4959064;28;20093;-62
2023/04/12 10:11:28;;;;;;;1.73;1.00;;;13.90;77.20;;;;;;4960856;28;20041;-62
2023/04/12 10:13:55;;;;;;;1.73;1.20;;;13.90;77.10;;;;;;4960164;28;20439;-62
2023/04/12 10:16:21;;;;;;;1.90;1.23;;;13.90;78.00;;;;;;4960730;28;20130;-60
2023/04/12 10:18:48;;;;;;;1.63;1.20;;;13.90;77.30;;;;;;4958855;28;20488;-62
2023/04/12 10:21:15;;;;;;;1.08;0.90;;;13.90;77.00;;;;;;4959783;28;20043;-61
2023/04/12 10:23:43;;;;;;;2.63;1.20;;;14.00;76.90;;;;;;4959136;28;20462;-62
2023/04/12 10:26:10;;;;;;;1.75;1.20;;;14.00;76.80;;;;;;4957091;28;20462;-62
2023/04/12 10:28:35;;;;;;;2.78;1.08;;;14.10;76.90;;;;;;4957110;28;20046;-62
2023/04/12 10:31:31;;;;;;;1.40;1.20;;;14.00;76.90;;;;;;4958260;28;20414;-61
2023/04/12 10:34:01;;;;;;;1.25;1.15;;;14.10;76.90;;;;;;4958009;28;20042;-61
2023/04/12 10:36:59;;;;;;;1.33;1.10;;;14.20;76.90;;;;;;4958027;28;20094;-62
2023/04/12 10:39:41;;;;;;;1.27;1.17;;;14.20;76.60;;;;;;4930483;28;20494;-62
2023/04/12 10:42:22;;;;;;;1.63;1.15;;;14.20;77.30;;;;;;4959178;28;20558;-62
2023/04/12 10:44:52;;;;;;;1.65;1.10;;;14.30;76.50;;;;;;4955988;28;20038;-60
2023/04/12 10:47:49;;;;;;;1.85;1.10;;;14.30;76.30;;;;;;4957896;28;20454;-60
2023/04/12 10:50:23;;;;;;;1.65;1.08;;;14.30;76.00;;;;;;4957523;28;20066;-62
2023/04/12 10:53:17;;;;;;;4.30;1.00;;;14.30;75.30;;;;;;4956240;28;20505;-61
2023/04/12 10:55:43;;;;;;;1.67;0.82;;;14.30;74.90;;;;;;4958177;28;20718;-61
2023/04/12 10:58:09;;;;;;;1.02;0.82;;;14.30;74.90;;;;;;4958477;28;20073;-62
2023/04/12 11:00:57;;;;;;;3.95;1.20;;;14.40;74.20;;;;;;4958641;28;20038;-61
2023/04/12 11:03:23;;;;;;;1.40;0.85;;;14.40;73.40;;;;;;4958226;28;20042;-60
2023/04/12 11:06:04;;;;;;;1.30;0.77;;;14.40;73.20;;;;;;4958514;28;20097;-61
2023/04/12 11:08:31;;;;;;;1.67;1.00;;;14.50;72.30;;;;;;4958703;28;20498;-61
2023/04/12 11:11:04;;;;;;;1.27;1.05;;;14.60;72.50;;;;;;4957039;28;20047;-60
2023/04/12 11:13:38;;;;;;;1.77;1.00;;;14.50;72.30;;;;;;4956956;28;20043;-61
2023/04/12 11:16:05;;;;;;;2.67;1.10;;;14.60;71.70;;;;;;4958119;28;20039;-61
2023/04/12 11:18:34;;;;;;;1.10;0.85;;;14.60;72.00;;;;;;4957722;28;20578;-62
2023/04/12 11:21:01;;;;;;;1.63;0.90;;;14.40;71.70;;;;;;4958771;28;20044;-61
2023/04/12 11:23:27;;;;;;;2.42;0.98;;;14.50;72.10;;;;;;4958489;28;20331;-62
2023/04/12 11:25:53;;;;;;;1.92;1.00;;;14.50;72.10;;;;;;4957628;28;20043;-62
2023/04/12 11:28:18;;;;;;;1.50;0.88;;;14.50;72.00;;;;;;4958608;28;20045;-61
2023/04/12 11:31:02;;;;;;;2.88;1.10;;;14.50;72.30;;;;;;4958291;28;20119;-62
2023/04/12 11:33:36;;;;;;;3.38;1.20;;;14.50;72.60;;;;;;4958088;28;20035;-62
2023/04/12 11:36:07;;;;;;;2.17;0.98;;;14.50;72.40;;;;;;4958115;28;20066;-62
2023/04/12 11:38:34;;;;;;;1.20;1.10;;;14.50;72.30;;;;;;4957984;28;20398;-62
2023/04/12 11:41:00;;;;;;;2.47;1.30;;;14.50;72.00;;;;;;4958261;28;20039;-62
2023/04/12 11:43:26;;;;;;;4.10;1.23;;;14.50;72.20;;;;;;4956924;28;20065;-62
2023/04/12 11:45:59;;;;;;;1.58;1.10;;;14.50;72.10;;;;;;4957214;28;20181;-61
2023/04/12 11:48:28;;;;;;;2.85;1.10;;;14.50;72.20;;;;;;4957053;28;20039;-62
2023/04/12 11:50:56;;;;;;;2.25;1.10;;;14.50;72.30;;;;;;4956582;28;20106;-62
2023/04/12 11:53:29;;;;;;;5.32;1.30;;;14.50;72.30;;;;;;4962137;28;20031;-61
2023/04/12 11:55:59;;;;;;;1.77;1.05;;;14.60;72.30;;;;;;4961251;28;20046;-62
2023/04/12 11:58:28;;;;;;;2.72;1.40;;;14.60;72.30;;;;;;4960409;28;20035;-62
2023/04/12 12:00:56;;;;;;;1.48;1.10;;;14.70;72.10;;;;;;4959671;28;20034;-62
2023/04/12 12:03:22;;;;;;;1.73;0.95;;;14.70;71.90;;;;;;4960786;28;20407;-62
2023/04/12 12:05:47;;;;;;;2.13;1.30;;;14.70;71.50;;;;;;4960076;28;20035;-62
2023/04/12 12:08:14;;;;;;;1.67;1.20;;;14.70;71.40;;;;;;4962669;28;20339;-62
2023/04/12 12:10:39;;;;;;;1.52;1.25;;;14.70;72.20;;;;;;4961923;28;20043;-62
2023/04/12 12:13:14;;;;;;;1.50;1.05;;;14.70;71.60;;;;;;4962802;28;20047;-61
2023/04/12 12:15:46;;;;;;;;;;;14.80;70.90;;;;;;4962315;28;20089;-63
2023/04/12 12:18:12;;;;;;;2.30;1.00;;;14.80;70.70;;;;;;4962031;28;19915;-62
2023/04/12 12:20:46;;;;;;;4.57;1.00;;;14.80;70.60;;;;;;4960158;28;20031;-62
2023/04/12 12:23:11;;;;;;;2.55;1.13;;;14.80;70.80;;;;;;4962095;28;20045;-62
2023/04/12 12:25:37;;;;;;;1.20;1.08;;;14.80;71.00;;;;;;4960362;28;20094;-62
2023/04/12 12:28:04;;;;;;;1.30;1.20;;;15.00;71.20;;;;;;4961579;28;20121;-62
2023/04/12 12:30:30;;;;;;;1.30;0.90;;;15.00;71.60;;;;;;4960093;28;20618;-62
2023/04/12 12:32:56;;;;;;;2.10;0.80;;;15.10;71.40;;;;;;4960803;28;20050;-63
2023/04/12 12:35:21;;;;;;;1.42;0.80;;;15.20;71.00;;;;;;4961302;28;20038;-62
2023/04/12 12:37:49;;;;;;;1.05;0.85;;;15.30;70.80;;;;;;4960657;28;20092;-62
2023/04/12 12:40:16;;;;;;;1.48;0.63;;;15.30;70.20;;;;;;4949561;28;20040;-61
2023/04/12 12:42:56;;;;;;;0.80;0.50;;;15.40;69.50;;;;;;4960864;28;20526;-62
2023/04/12 12:45:23;;;;;;;1.38;0.40;;;15.50;68.30;;;;;;4961136;28;20470;-61
2023/04/12 12:47:54;;;;;;;0.77;0.47;;;15.60;68.60;;;;;;4958936;28;20050;-62
2023/04/12 12:50:23;;;;;;;0.77;0.45;;;15.60;67.60;;;;;;4961027;28;20051;-62
2023/04/12 12:52:49;;;;;;;0.50;0.50;;;15.70;67.80;;;;;;4959451;28;20491;-62
2023/04/12 12:55:15;;;;;;;2.95;0.70;;;15.80;67.80;;;;;;4961872;28;20047;-62
2023/04/12 12:57:43;;;;;;;1.88;0.40;;;15.90;67.60;;;;;;4960489;28;20671;-62